CPH weather

Copenhagen Kastrup Airport
Copenhagen, Capital Region, Denmark

Public forecast

Using degrees Celsius for public forecast. Weather courtesy of forecast.io.

Current aviation weather report (METAR) for Copenhagen Kastrup Airport

Retrieved 2019/10/13 18:20 UTC (39 minutes ago):

EKCH 131820Z 13016KT 9999 BKN006 FEW050CB 12/12 Q1005 RERA TEMPO 4000 RA

Aviation forecast (TAF) for Copenhagen Kastrup Airport

Retrieved 2019/10/13 18:30 UTC (29 minutes ago):

TAF EKCH 131715Z 1318/1418 11015KT 4000 RA BR BKN006 SCT050CB BECMG 1318/1321 21018KT 9999 NSW SCT025 TEMPO 1321/1324 23018G32KT BECMG 1400/1402 24024G36KT BECMG 1407/1409 28015KT